Time;durP1;ratioP1;P1;durP2;ratioP2;P2;SDS_P1;SDS_P2;PMS_P1;PMS_P2;Temp;Humidity;BMP_temperature;BMP_pressure;BME280_temperature;BME280_humidity;BME280_pressure;Samples;Min_cycle;Max_cycle;Signal;HPM_P1;HPM_P2
2023/11/22 00:04:38;;;;;;;6.53;4.60;;;;;;;;;;12886874;22;20023;-68
2023/11/22 00:09:34;;;;;;;5.97;4.95;;;;;;;;;;12886775;22;20022;-67
2023/11/22 00:14:30;;;;;;;6.55;5.28;;;;;;;;;;12886111;22;20026;-68
2023/11/22 00:19:27;;;;;;;8.40;5.00;;;;;;;;;;12886344;22;20029;-68
2023/11/22 00:24:23;;;;;;;5.45;4.68;;;;;;;;;;12886246;22;20035;-68
2023/11/22 00:29:19;;;;;;;7.32;5.20;;;;;;;;;;12880359;22;20027;-67
2023/11/22 00:34:17;;;;;;;6.25;4.97;;;;;;;;;;12884900;22;20018;-68
2023/11/22 00:39:16;;;;;;;10.82;5.57;;;;;;;;;;12886102;22;20026;-68
2023/11/22 00:44:13;;;;;;;7.07;5.05;;;;;;;;;;12885569;22;20022;-68
2023/11/22 00:49:09;;;;;;;7.70;4.80;;;;;;;;;;12886120;22;20461;-68
2023/11/22 00:54:05;;;;;;;6.13;4.93;;;;;;;;;;12879042;22;20108;-68
2023/11/22 00:59:03;;;;;;;6.40;5.25;;;;;;;;;;12884916;22;20030;-68
2023/11/22 01:04:00;;;;;;;5.00;4.50;;;;;;;;;;12885265;22;20114;-67
2023/11/22 01:08:56;;;;;;;12.82;5.40;;;;;;;;;;12884993;22;20073;-67
2023/11/22 01:13:52;;;;;;;5.68;4.57;;;;;;;;;;12885766;22;20023;-68
2023/11/22 01:18:49;;;;;;;7.72;5.50;;;;;;;;;;12885054;22;20193;-68
2023/11/22 01:23:46;;;;;;;6.93;5.25;;;;;;;;;;12885749;22;20113;-67
2023/11/22 01:28:44;;;;;;;7.18;5.18;;;;;;;;;;12884125;22;20022;-69
2023/11/22 01:33:40;;;;;;;6.65;5.10;;;;;;;;;;12880385;22;20097;-68
2023/11/22 01:38:39;;;;;;;10.07;5.40;;;;;;;;;;12884332;22;20333;-68
2023/11/22 01:43:35;;;;;;;6.65;4.97;;;;;;;;;;12885263;22;20061;-68
2023/11/22 01:48:32;;;;;;;6.43;5.30;;;;;;;;;;12884813;22;20096;-68
2023/11/22 01:53:28;;;;;;;7.25;5.22;;;;;;;;;;12883872;22;20023;-68
2023/11/22 01:58:25;;;;;;;5.70;4.82;;;;;;;;;;12879943;22;20027;-68
2023/11/22 02:03:21;;;;;;;6.30;4.78;;;;;;;;;;12884603;22;20023;-68
2023/11/22 02:08:18;;;;;;;5.07;4.57;;;;;;;;;;12882015;22;20030;-67
2023/11/22 02:13:15;;;;;;;7.03;5.57;;;;;;;;;;12884858;22;20539;-67
2023/11/22 02:18:11;;;;;;;6.13;5.03;;;;;;;;;;12885199;22;20040;-67
2023/11/22 02:23:09;;;;;;;5.78;4.80;;;;;;;;;;12884212;22;20536;-67
2023/11/22 02:28:08;;;;;;;6.53;5.03;;;;;;;;;;12884938;22;20491;-68
2023/11/22 02:33:05;;;;;;;6.68;4.82;;;;;;;;;;12883798;22;20360;-68
2023/11/22 02:38:01;;;;;;;4.95;4.40;;;;;;;;;;12884720;22;20088;-67
2023/11/22 02:42:58;;;;;;;6.80;4.57;;;;;;;;;;12886867;22;20054;-67
2023/11/22 02:47:54;;;;;;;7.95;5.00;;;;;;;;;;12885818;22;20036;-67
2023/11/22 02:52:50;;;;;;;6.97;4.90;;;;;;;;;;12887995;22;20106;-67
2023/11/22 02:57:47;;;;;;;6.47;4.78;;;;;;;;;;12887681;22;20053;-67
2023/11/22 03:02:43;;;;;;;7.13;4.38;;;;;;;;;;12875679;22;20022;-66
2023/11/22 03:07:41;;;;;;;6.95;4.70;;;;;;;;;;12887450;22;20037;-67
2023/11/22 03:12:37;;;;;;;7.80;5.28;;;;;;;;;;12886310;22;20026;-67
2023/11/22 03:17:33;;;;;;;7.43;4.63;;;;;;;;;;12886904;22;20031;-67
2023/11/22 03:22:30;;;;;;;7.07;5.00;;;;;;;;;;12886808;22;20030;-67
2023/11/22 03:27:27;;;;;;;6.07;5.05;;;;;;;;;;12887242;22;20026;-67
2023/11/22 03:32:23;;;;;;;5.40;4.68;;;;;;;;;;12885534;22;20026;-66
2023/11/22 03:37:19;;;;;;;9.57;5.47;;;;;;;;;;12887038;22;20035;-66
2023/11/22 03:42:16;;;;;;;10.60;5.43;;;;;;;;;;12886046;22;20027;-67
2023/11/22 03:47:15;;;;;;;7.75;5.05;;;;;;;;;;12888166;22;20037;-68
2023/11/22 03:52:12;;;;;;;7.03;5.50;;;;;;;;;;12886512;22;20057;-68
2023/11/22 03:57:08;;;;;;;6.75;5.43;;;;;;;;;;12886648;22;20023;-67
2023/11/22 04:02:05;;;;;;;12.90;6.00;;;;;;;;;;12880446;22;20399;-67
2023/11/22 04:07:01;;;;;;;6.32;5.28;;;;;;;;;;12879727;22;20102;-66
2023/11/22 04:11:58;;;;;;;7.03;5.63;;;;;;;;;;12886333;22;20064;-67
2023/11/22 04:16:54;;;;;;;9.48;5.93;;;;;;;;;;12886710;22;20034;-67
2023/11/22 04:21:50;;;;;;;7.85;6.32;;;;;;;;;;12885895;22;20471;-67
2023/11/22 04:26:47;;;;;;;8.82;6.38;;;;;;;;;;12884852;22;20420;-67
2023/11/22 04:31:44;;;;;;;7.30;6.40;;;;;;;;;;12883990;22;20629;-67
2023/11/22 04:36:41;;;;;;;7.07;5.53;;;;;;;;;;12882865;22;20027;-66
2023/11/22 04:41:37;;;;;;;6.53;5.65;;;;;;;;;;12884577;22;20023;-66
2023/11/22 04:46:34;;;;;;;5.97;5.35;;;;;;;;;;12885629;22;20030;-66
2023/11/22 04:51:30;;;;;;;8.13;5.57;;;;;;;;;;12885609;22;20022;-68
2023/11/22 04:56:26;;;;;;;9.63;6.22;;;;;;;;;;12881901;22;20581;-68
2023/11/22 05:01:23;;;;;;;7.25;5.78;;;;;;;;;;12880545;22;20131;-67
2023/11/22 05:06:20;;;;;;;7.30;6.45;;;;;;;;;;12879666;22;20053;-67
2023/11/22 05:11:17;;;;;;;8.18;6.40;;;;;;;;;;12876791;22;20558;-67
2023/11/22 05:16:13;;;;;;;8.35;6.20;;;;;;;;;;12884724;22;20022;-67
2023/11/22 05:21:10;;;;;;;8.35;6.57;;;;;;;;;;12883339;22;20367;-68
2023/11/22 05:26:06;;;;;;;8.32;6.38;;;;;;;;;;12879891;22;20023;-68
2023/11/22 05:31:02;;;;;;;6.70;6.05;;;;;;;;;;12882769;22;20018;-68
2023/11/22 05:35:59;;;;;;;8.15;6.82;;;;;;;;;;12884345;22;20027;-67
2023/11/22 05:40:55;;;;;;;9.20;7.07;;;;;;;;;;12877074;22;20023;-67
2023/11/22 05:45:53;;;;;;;13.82;6.88;;;;;;;;;;12880231;22;20022;-67
2023/11/22 05:50:49;;;;;;;8.32;6.95;;;;;;;;;;12878978;22;20046;-68
2023/11/22 05:55:49;;;;;;;7.53;6.72;;;;;;;;;;12852006;22;20479;-67
2023/11/22 06:00:46;;;;;;;9.40;7.57;;;;;;;;;;12880319;22;20107;-69
2023/11/22 06:05:42;;;;;;;9.98;8.25;;;;;;;;;;12878711;22;20651;-69
2023/11/22 06:10:41;;;;;;;8.02;7.22;;;;;;;;;;12868316;22;20025;-69
2023/11/22 06:15:37;;;;;;;9.75;7.68;;;;;;;;;;12879937;22;20022;-69
2023/11/22 06:20:33;;;;;;;16.55;7.95;;;;;;;;;;12881210;22;20011;-71
2023/11/22 06:25:30;;;;;;;9.25;7.68;;;;;;;;;;12880354;22;20429;-73
2023/11/22 06:30:27;;;;;;;9.68;7.28;;;;;;;;;;12882033;22;20027;-70
2023/11/22 06:35:24;;;;;;;9.15;7.80;;;;;;;;;;12880732;22;20019;-70
2023/11/22 06:40:20;;;;;;;10.48;7.88;;;;;;;;;;12882836;22;20062;-71
2023/11/22 06:45:17;;;;;;;10.73;8.27;;;;;;;;;;12885188;22;20018;-71
2023/11/22 06:50:13;;;;;;;8.80;7.43;;;;;;;;;;12852187;22;20113;-73
2023/11/22 06:55:10;;;;;;;9.77;8.25;;;;;;;;;;12880351;22;20026;-73
2023/11/22 07:00:09;;;;;;;10.60;7.10;;;;;;;;;;12880045;22;20387;-73
2023/11/22 07:05:08;;;;;;;10.18;7.55;;;;;;;;;;12837890;22;1042745;-73
2023/11/22 07:10:05;;;;;;;9.73;7.28;;;;;;;;;;12886244;22;20053;-73
2023/11/22 07:15:02;;;;;;;9.50;7.53;;;;;;;;;;12888757;22;20027;-73
2023/11/22 07:20:00;;;;;;;14.32;8.73;;;;;;;;;;12882762;22;20054;-72
2023/11/22 07:25:01;;;;;;;9.98;8.25;;;;;;;;;;12887139;22;20084;-72
2023/11/22 07:29:58;;;;;;;11.15;6.97;;;;;;;;;;12888405;22;20015;-72
2023/11/22 07:34:55;;;;;;;13.48;8.57;;;;;;;;;;12882719;22;20460;-73
2023/11/22 07:39:53;;;;;;;10.55;8.43;;;;;;;;;;12885888;22;20027;-72
2023/11/22 07:44:55;;;;;;;11.45;8.23;;;;;;;;;;12886431;22;20092;-73
2023/11/22 07:49:52;;;;;;;12.38;8.73;;;;;;;;;;12887042;22;20015;-73
2023/11/22 07:54:49;;;;;;;13.70;8.95;;;;;;;;;;12860432;22;20021;-72
2023/11/22 07:59:47;;;;;;;12.82;8.85;;;;;;;;;;12887149;22;20409;-73
2023/11/22 08:04:45;;;;;;;11.60;8.18;;;;;;;;;;12885939;22;20030;-73
2023/11/22 08:09:41;;;;;;;11.45;8.60;;;;;;;;;;12887202;22;20468;-72
2023/11/22 08:14:37;;;;;;;12.60;9.30;;;;;;;;;;12887340;22;20023;-73
2023/11/22 08:19:34;;;;;;;11.10;9.38;;;;;;;;;;12887110;22;20034;-73
2023/11/22 08:24:30;;;;;;;10.25;8.55;;;;;;;;;;12860059;22;20030;-73
2023/11/22 08:29:26;;;;;;;13.65;9.20;;;;;;;;;;12859288;22;20609;-72
2023/11/22 08:34:23;;;;;;;11.90;9.13;;;;;;;;;;12880281;22;20054;-73
2023/11/22 08:39:19;;;;;;;11.13;9.05;;;;;;;;;;12886300;22;20106;-73
2023/11/22 08:44:16;;;;;;;11.80;9.25;;;;;;;;;;12887113;22;20081;-72
2023/11/22 08:49:12;;;;;;;13.65;10.00;;;;;;;;;;12886493;22;20023;-73
2023/11/22 08:54:08;;;;;;;12.55;9.98;;;;;;;;;;12887022;22;20025;-73
2023/11/22 08:59:05;;;;;;;14.48;9.13;;;;;;;;;;12886220;22;20541;-72
2023/11/22 09:04:01;;;;;;;14.30;10.57;;;;;;;;;;12885914;22;20407;-73
2023/11/22 09:08:58;;;;;;;14.77;10.43;;;;;;;;;;12885265;22;20037;-72
2023/11/22 09:13:56;;;;;;;18.08;10.13;;;;;;;;;;12886543;22;20019;-73
2023/11/22 09:18:55;;;;;;;9.23;8.32;;;;;;;;;;12883835;22;20026;-72
2023/11/22 09:23:52;;;;;;;10.63;9.10;;;;;;;;;;12885771;22;20113;-72
2023/11/22 09:28:48;;;;;;;10.25;8.60;;;;;;;;;;12885616;22;20019;-72
2023/11/22 09:33:45;;;;;;;11.27;9.18;;;;;;;;;;12880810;22;20072;-72
2023/11/22 09:38:41;;;;;;;12.15;8.93;;;;;;;;;;12884034;22;20023;-72
2023/11/22 09:43:39;;;;;;;12.43;8.30;;;;;;;;;;12885762;22;20022;-72
2023/11/22 09:48:36;;;;;;;8.63;7.78;;;;;;;;;;12886917;22;20102;-72
2023/11/22 09:53:33;;;;;;;9.95;8.07;;;;;;;;;;12887814;22;20034;-73
2023/11/22 09:58:31;;;;;;;10.63;7.75;;;;;;;;;;12889040;22;20555;-73
2023/11/22 10:03:30;;;;;;;9.05;7.30;;;;;;;;;;12888478;22;20363;-72
2023/11/22 10:08:27;;;;;;;8.88;7.45;;;;;;;;;;12889527;22;20476;-72
2023/11/22 10:13:24;;;;;;;11.85;8.10;;;;;;;;;;12888709;22;20023;-72
2023/11/22 10:18:21;;;;;;;8.77;7.47;;;;;;;;;;12888813;22;20033;-72
2023/11/22 10:23:19;;;;;;;9.60;7.22;;;;;;;;;;12888929;22;20030;-72
2023/11/22 10:28:17;;;;;;;13.95;7.15;;;;;;;;;;12889149;22;20494;-72
2023/11/22 10:33:15;;;;;;;9.18;6.60;;;;;;;;;;12887568;22;20406;-72
2023/11/22 10:38:15;;;;;;;12.77;6.65;;;;;;;;;;12887861;22;20406;-72
2023/11/22 10:43:12;;;;;;;9.10;7.50;;;;;;;;;;12880964;22;20023;-72
2023/11/22 10:48:10;;;;;;;7.43;6.50;;;;;;;;;;12887559;22;20341;-73
2023/11/22 10:53:12;;;;;;;7.38;6.07;;;;;;;;;;12887974;22;20102;-72
2023/11/22 10:58:11;;;;;;;11.20;6.53;;;;;;;;;;12888203;22;20110;-72
2023/11/22 11:03:11;;;;;;;7.50;6.68;;;;;;;;;;12887149;22;20023;-72
2023/11/22 11:08:11;;;;;;;9.90;7.60;;;;;;;;;;12888847;22;20029;-73
2023/11/22 11:13:11;;;;;;;10.00;7.38;;;;;;;;;;12887665;22;20499;-73
2023/11/22 11:18:10;;;;;;;10.32;7.50;;;;;;;;;;12887558;22;20026;-73
2023/11/22 11:23:06;;;;;;;9.98;6.80;;;;;;;;;;12887254;22;20076;-73
2023/11/22 11:28:03;;;;;;;12.02;6.35;;;;;;;;;;12887972;22;20019;-73
2023/11/22 11:33:01;;;;;;;10.02;6.43;;;;;;;;;;12886941;22;20042;-73
2023/11/22 11:38:03;;;;;;;7.90;6.63;;;;;;;;;;12887843;22;20022;-74
2023/11/22 11:43:00;;;;;;;7.82;6.10;;;;;;;;;;12887366;22;20064;-73
2023/11/22 11:47:56;;;;;;;9.27;5.85;;;;;;;;;;12881566;22;20015;-72
2023/11/22 11:52:53;;;;;;;7.03;5.50;;;;;;;;;;12857882;22;20026;-72
2023/11/22 11:57:49;;;;;;;9.13;5.60;;;;;;;;;;12886587;22;20088;-73
2023/11/22 12:02:48;;;;;;;10.48;6.18;;;;;;;;;;12885695;22;20019;-72
2023/11/22 12:07:44;;;;;;;6.82;6.13;;;;;;;;;;12886952;22;20050;-71
2023/11/22 12:12:43;;;;;;;5.78;5.18;;;;;;;;;;12887406;22;20070;-73
2023/11/22 12:17:39;;;;;;;5.72;4.90;;;;;;;;;;12887070;22;20611;-73
2023/11/22 12:22:36;;;;;;;9.75;5.60;;;;;;;;;;12886732;22;20025;-72
2023/11/22 12:27:32;;;;;;;5.60;4.75;;;;;;;;;;12886544;22;20015;-73
2023/11/22 12:32:29;;;;;;;5.82;4.78;;;;;;;;;;12886786;22;20072;-72
2023/11/22 12:37:27;;;;;;;5.80;4.10;;;;;;;;;;12886977;22;20034;-73
2023/11/22 12:42:23;;;;;;;5.90;4.72;;;;;;;;;;12885728;22;20027;-72
2023/11/22 12:47:35;;;;;;;6.45;4.45;;;;;;;;;;12886024;22;20022;-73
2023/11/22 12:52:32;;;;;;;4.73;4.33;;;;;;;;;;12885881;22;20018;-73
2023/11/22 12:57:29;;;;;;;4.78;4.32;;;;;;;;;;12886508;22;20027;-73
2023/11/22 13:02:25;;;;;;;5.50;5.00;;;;;;;;;;12879474;22;20026;-72
2023/11/22 13:07:21;;;;;;;5.60;4.97;;;;;;;;;;12886407;22;20031;-72
2023/11/22 13:12:19;;;;;;;8.75;5.43;;;;;;;;;;12885501;22;20018;-72
2023/11/22 13:17:15;;;;;;;5.47;4.50;;;;;;;;;;12885234;22;20030;-72
2023/11/22 13:22:11;;;;;;;4.95;3.80;;;;;;;;;;12885166;22;20539;-72
2023/11/22 13:27:10;;;;;;;5.90;3.88;;;;;;;;;;12888221;22;20026;-73
2023/11/22 13:32:07;;;;;;;4.40;3.60;;;;;;;;;;12889032;22;20019;-73
2023/11/22 13:37:04;;;;;;;4.75;4.00;;;;;;;;;;12886788;22;20053;-72
2023/11/22 13:42:00;;;;;;;4.35;3.92;;;;;;;;;;12885613;22;20489;-72
2023/11/22 13:46:57;;;;;;;3.72;3.38;;;;;;;;;;12885501;22;20018;-73
2023/11/22 13:51:53;;;;;;;4.65;3.75;;;;;;;;;;12885261;22;20402;-73
2023/11/22 13:56:50;;;;;;;5.18;3.67;;;;;;;;;;12886179;22;20017;-73
2023/11/22 14:01:46;;;;;;;3.80;3.50;;;;;;;;;;12878204;22;20043;-73
2023/11/22 14:06:46;;;;;;;5.32;3.65;;;;;;;;;;12883957;22;20010;-73
2023/11/22 14:11:43;;;;;;;6.15;3.67;;;;;;;;;;12885082;22;20106;-73
2023/11/22 14:16:43;;;;;;;3.90;3.50;;;;;;;;;;12884677;22;20030;-72
2023/11/22 14:21:40;;;;;;;3.90;3.60;;;;;;;;;;12884875;22;20359;-73
2023/11/22 14:26:36;;;;;;;4.32;3.50;;;;;;;;;;12885632;22;20019;-73
2023/11/22 14:31:33;;;;;;;4.30;3.90;;;;;;;;;;12884651;22;20023;-73
2023/11/22 14:36:29;;;;;;;4.20;3.80;;;;;;;;;;12887567;22;20105;-72
2023/11/22 14:41:26;;;;;;;4.18;3.70;;;;;;;;;;12888487;22;20452;-73
2023/11/22 14:46:23;;;;;;;4.60;4.20;;;;;;;;;;12888330;22;20506;-72
2023/11/22 14:51:19;;;;;;;4.43;4.03;;;;;;;;;;12888243;22;20029;-73
2023/11/22 14:56:17;;;;;;;4.88;4.38;;;;;;;;;;12887887;22;20034;-73
2023/11/22 15:01:14;;;;;;;6.82;4.43;;;;;;;;;;12887645;22;20084;-73
2023/11/22 15:06:10;;;;;;;4.97;4.50;;;;;;;;;;12886751;22;20023;-73
2023/11/22 15:11:07;;;;;;;4.53;4.13;;;;;;;;;;12881289;22;20356;-73
2023/11/22 15:16:07;;;;;;;6.50;4.82;;;;;;;;;;12887751;22;20034;-73
2023/11/22 15:21:03;;;;;;;5.20;4.68;;;;;;;;;;12886660;22;20023;-73
2023/11/22 15:25:59;;;;;;;6.50;5.03;;;;;;;;;;12887532;22;20019;-73
2023/11/22 15:30:58;;;;;;;5.82;5.30;;;;;;;;;;12887529;22;20107;-73
2023/11/22 15:35:55;;;;;;;5.88;5.38;;;;;;;;;;12876216;22;20026;-70
2023/11/22 15:40:52;;;;;;;5.90;5.38;;;;;;;;;;12884934;22;20084;-70
2023/11/22 15:45:50;;;;;;;8.70;5.43;;;;;;;;;;12885283;22;20049;-69
2023/11/22 15:50:47;;;;;;;6.57;5.97;;;;;;;;;;12886906;22;20018;-70
2023/11/22 15:55:43;;;;;;;9.57;5.55;;;;;;;;;;12887945;22;20359;-70
2023/11/22 16:00:40;;;;;;;6.00;5.40;;;;;;;;;;12885809;22;20452;-70
2023/11/22 16:05:36;;;;;;;5.72;5.20;;;;;;;;;;12882771;22;20023;-71
2023/11/22 16:10:32;;;;;;;6.00;5.28;;;;;;;;;;12885559;22;20348;-70
2023/11/22 16:15:29;;;;;;;6.40;5.35;;;;;;;;;;12880216;22;20019;-72
2023/11/22 16:20:26;;;;;;;5.43;4.93;;;;;;;;;;12856962;22;20102;-72
2023/11/22 16:25:23;;;;;;;5.85;5.13;;;;;;;;;;12859152;22;20057;-73
2023/11/22 16:30:21;;;;;;;5.57;4.78;;;;;;;;;;12885985;22;20023;-71
2023/11/22 16:35:17;;;;;;;8.70;5.35;;;;;;;;;;12886632;22;20021;-72
2023/11/22 16:40:14;;;;;;;5.93;5.05;;;;;;;;;;12885182;22;20395;-74
2023/11/22 16:45:11;;;;;;;5.32;4.82;;;;;;;;;;12884692;22;20019;-72
2023/11/22 16:50:09;;;;;;;5.57;5.00;;;;;;;;;;12875642;22;20068;-73
2023/11/22 16:55:06;;;;;;;6.82;5.68;;;;;;;;;;12856741;22;20444;-73
2023/11/22 17:00:08;;;;;;;5.88;4.93;;;;;;;;;;12884416;22;20456;-73
2023/11/22 17:05:06;;;;;;;6.82;5.60;;;;;;;;;;12884159;22;20077;-73
2023/11/22 17:10:02;;;;;;;5.95;5.32;;;;;;;;;;12858633;22;20026;-72
2023/11/22 17:14:59;;;;;;;6.82;5.32;;;;;;;;;;12886015;22;20046;-72
2023/11/22 17:19:55;;;;;;;7.40;5.20;;;;;;;;;;12883150;22;20033;-72
2023/11/22 17:24:52;;;;;;;5.45;4.68;;;;;;;;;;12879823;22;20023;-73
2023/11/22 17:29:50;;;;;;;5.72;5.15;;;;;;;;;;12881232;22;20033;-72
2023/11/22 17:34:47;;;;;;;5.43;4.93;;;;;;;;;;12880493;22;20064;-73
2023/11/22 17:39:44;;;;;;;7.38;5.78;;;;;;;;;;12879737;22;20027;-71
2023/11/22 17:44:41;;;;;;;5.45;4.90;;;;;;;;;;12876320;22;20031;-71
2023/11/22 17:49:37;;;;;;;8.00;5.72;;;;;;;;;;12866851;22;20027;-72
2023/11/22 17:54:46;;;;;;;5.40;4.82;;;;;;;;;;12788824;22;20031;-73
2023/11/22 17:59:51;;;;;;;6.45;5.53;;;;;;;;;;12812179;22;20023;-73
2023/11/22 18:04:47;;;;;;;7.75;5.57;;;;;;;;;;12788206;22;20047;-72
2023/11/22 18:09:43;;;;;;;6.75;5.78;;;;;;;;;;12818479;22;20215;-73
2023/11/22 18:14:40;;;;;;;7.90;6.05;;;;;;;;;;12822171;22;20023;-73
2023/11/22 18:19:36;;;;;;;6.22;5.50;;;;;;;;;;12822294;22;20057;-72
2023/11/22 18:24:32;;;;;;;9.52;6.40;;;;;;;;;;12821291;22;20058;-73
2023/11/22 18:29:29;;;;;;;6.63;5.70;;;;;;;;;;12821122;22;20449;-73
2023/11/22 18:34:31;;;;;;;7.00;5.30;;;;;;;;;;12838773;22;20475;-74
2023/11/22 18:39:29;;;;;;;9.30;5.20;;;;;;;;;;12813280;22;20073;-72
2023/11/22 18:44:26;;;;;;;6.78;4.85;;;;;;;;;;12819203;22;20023;-72
2023/11/22 18:49:23;;;;;;;7.78;5.43;;;;;;;;;;12820338;22;20020;-73
2023/11/22 18:54:21;;;;;;;5.82;5.05;;;;;;;;;;12820295;22;20023;-73
2023/11/22 18:59:17;;;;;;;7.15;5.45;;;;;;;;;;12820724;22;20105;-72
2023/11/22 19:04:14;;;;;;;7.50;5.60;;;;;;;;;;12819116;22;20054;-72
2023/11/22 19:09:11;;;;;;;6.78;5.30;;;;;;;;;;12819654;22;20727;-73
2023/11/22 19:14:07;;;;;;;8.00;5.43;;;;;;;;;;12819716;22;20050;-72
2023/11/22 19:19:03;;;;;;;6.60;5.50;;;;;;;;;;12820749;22;20563;-72
2023/11/22 19:24:00;;;;;;;10.27;5.35;;;;;;;;;;12819154;22;20505;-72
2023/11/22 19:28:58;;;;;;;6.43;5.75;;;;;;;;;;12818900;22;20023;-72
2023/11/22 19:33:54;;;;;;;6.00;4.75;;;;;;;;;;12818929;22;20019;-73
2023/11/22 19:38:53;;;;;;;6.13;5.45;;;;;;;;;;12814735;22;20930;-72
2023/11/22 19:43:50;;;;;;;8.95;5.10;;;;;;;;;;12819169;22;20019;-73
2023/11/22 19:48:46;;;;;;;6.57;5.35;;;;;;;;;;12821070;22;20023;-71
2023/11/22 19:53:43;;;;;;;5.07;4.57;;;;;;;;;;12815524;22;20026;-72
2023/11/22 19:58:40;;;;;;;6.70;5.65;;;;;;;;;;12819317;22;20023;-72
2023/11/22 20:03:37;;;;;;;5.97;5.03;;;;;;;;;;12819256;22;20468;-72
2023/11/22 20:08:34;;;;;;;8.55;5.68;;;;;;;;;;12819793;22;20019;-73
2023/11/22 20:13:30;;;;;;;7.85;5.63;;;;;;;;;;12819593;22;20023;-72
2023/11/22 20:18:26;;;;;;;7.10;5.97;;;;;;;;;;12820466;22;20023;-73
2023/11/22 20:28:32;;;;;;;6.63;5.85;;;;;;;;;;12875317;22;20423;-72
2023/11/22 20:33:28;;;;;;;7.07;5.72;;;;;;;;;;12820132;22;20057;-73
2023/11/22 20:38:25;;;;;;;8.25;4.97;;;;;;;;;;12819543;22;20023;-74
2023/11/22 20:43:22;;;;;;;7.75;5.40;;;;;;;;;;12819046;22;20027;-73
2023/11/22 20:48:18;;;;;;;9.98;5.80;;;;;;;;;;12815885;22;20015;-73
2023/11/22 20:53:15;;;;;;;6.00;5.38;;;;;;;;;;12813069;22;20019;-73
2023/11/22 20:58:11;;;;;;;7.68;5.40;;;;;;;;;;12817698;22;20034;-72
2023/11/22 21:03:08;;;;;;;8.27;5.88;;;;;;;;;;12818633;22;20037;-72
2023/11/22 21:08:05;;;;;;;7.03;5.70;;;;;;;;;;12818949;22;20047;-72
2023/11/22 21:13:14;;;;;;;11.15;5.78;;;;;;;;;;12817037;22;20025;-73
2023/11/22 21:18:10;;;;;;;11.40;6.60;;;;;;;;;;12817285;22;20173;-71
2023/11/22 21:23:07;;;;;;;9.63;6.65;;;;;;;;;;12811126;22;20019;-73
2023/11/22 21:28:04;;;;;;;10.13;7.03;;;;;;;;;;12812736;22;20411;-70
2023/11/22 21:33:00;;;;;;;10.27;6.63;;;;;;;;;;12817866;22;20399;-68
2023/11/22 21:37:56;;;;;;;10.88;6.53;;;;;;;;;;12818051;22;20115;-69
2023/11/22 21:42:53;;;;;;;10.70;8.35;;;;;;;;;;12815249;22;20030;-68
2023/11/22 21:47:49;;;;;;;11.35;7.43;;;;;;;;;;12817678;22;20054;-68
2023/11/22 21:52:46;;;;;;;15.18;8.15;;;;;;;;;;12840448;22;20081;-68
2023/11/22 21:57:43;;;;;;;15.95;9.10;;;;;;;;;;12808328;22;20023;-68
2023/11/22 22:02:40;;;;;;;12.68;8.30;;;;;;;;;;12817303;22;20137;-68
2023/11/22 22:07:37;;;;;;;15.15;7.90;;;;;;;;;;12818385;22;20069;-69
2023/11/22 22:12:33;;;;;;;12.40;9.48;;;;;;;;;;12817026;22;20027;-68
2023/11/22 22:17:29;;;;;;;13.15;9.07;;;;;;;;;;12817280;22;20027;-69
2023/11/22 22:22:27;;;;;;;15.73;10.75;;;;;;;;;;12817501;22;20038;-69
2023/11/22 22:27:23;;;;;;;15.27;10.65;;;;;;;;;;12817376;22;20098;-69
2023/11/22 22:32:20;;;;;;;18.27;9.75;;;;;;;;;;12817445;22;20093;-69
2023/11/22 22:37:16;;;;;;;20.25;11.10;;;;;;;;;;12817536;22;20028;-69
2023/11/22 22:42:12;;;;;;;17.20;10.80;;;;;;;;;;12818561;22;20034;-68
2023/11/22 22:47:09;;;;;;;19.35;11.20;;;;;;;;;;12818062;22;20368;-68
2023/11/22 22:52:06;;;;;;;18.38;11.25;;;;;;;;;;12817230;22;20034;-68
2023/11/22 22:57:08;;;;;;;18.27;11.35;;;;;;;;;;12821145;22;20030;-69
2023/11/22 23:02:04;;;;;;;15.85;10.57;;;;;;;;;;12820806;22;20672;-69
2023/11/22 23:07:01;;;;;;;18.95;12.32;;;;;;;;;;12820468;22;20102;-67
2023/11/22 23:11:57;;;;;;;20.33;12.70;;;;;;;;;;12820913;22;20023;-67
2023/11/22 23:16:53;;;;;;;21.70;12.40;;;;;;;;;;12821177;22;20399;-68
2023/11/22 23:21:53;;;;;;;22.75;12.95;;;;;;;;;;12815228;22;20050;-69
2023/11/22 23:26:49;;;;;;;22.08;14.95;;;;;;;;;;12818999;22;20077;-68
2023/11/22 23:31:46;;;;;;;22.98;13.93;;;;;;;;;;12818303;22;20514;-69
2023/11/22 23:36:42;;;;;;;20.35;13.15;;;;;;;;;;12819628;22;20109;-68
2023/11/22 23:41:39;;;;;;;31.02;15.30;;;;;;;;;;12821610;22;20020;-68
2023/11/22 23:46:35;;;;;;;21.95;15.55;;;;;;;;;;12820929;22;20027;-67
2023/11/22 23:51:36;;;;;;;27.00;16.88;;;;;;;;;;12820531;22;20534;-69
2023/11/22 23:56:35;;;;;;;28.45;16.80;;;;;;;;;;12819183;22;20031;-69
